createdAt,value
2019-05-11T00:00:45.369Z,18.15
2019-05-11T00:03:51.418Z,18.19
2019-05-11T00:06:57.306Z,18.15
2019-05-11T00:10:03.185Z,17.94
2019-05-11T00:13:10.712Z,18.06
2019-05-11T00:16:19.160Z,18.00
2019-05-11T00:19:25.460Z,18.07
2019-05-11T00:22:31.434Z,18.02
2019-05-11T00:25:37.438Z,17.77
2019-05-11T00:28:43.399Z,17.90
2019-05-11T00:31:49.294Z,17.85
2019-05-11T00:34:55.212Z,17.68
2019-05-11T00:38:01.087Z,17.83
2019-05-11T00:41:07.068Z,17.72
2019-05-11T00:44:14.086Z,17.65
2019-05-11T00:47:20.077Z,17.65
2019-05-11T00:50:38.589Z,17.76
2019-05-11T00:53:33.704Z,17.66
2019-05-11T00:56:39.612Z,17.65
2019-05-11T00:59:45.576Z,17.68
2019-05-11T01:02:51.456Z,17.80
2019-05-11T01:05:57.428Z,17.75
2019-05-11T01:09:03.988Z,17.69
2019-05-11T01:12:10.030Z,17.55
2019-05-11T01:15:16.099Z,17.59
2019-05-11T01:18:22.042Z,17.45
2019-05-11T01:21:28.194Z,17.62
2019-05-11T01:24:34.770Z,17.62
2019-05-11T01:27:41.765Z,17.63
2019-05-11T01:30:47.666Z,17.63
2019-05-11T01:33:53.613Z,17.48
2019-05-11T01:36:59.488Z,17.43
2019-05-11T01:40:05.738Z,17.40
2019-05-11T01:43:11.818Z,17.40
2019-05-11T01:46:17.855Z,17.35
2019-05-11T01:49:23.749Z,17.23
2019-05-11T01:52:29.643Z,17.15
2019-05-11T01:55:35.566Z,17.27
2019-05-11T01:58:41.443Z,17.32
2019-05-11T02:01:47.464Z,17.32
2019-05-11T02:05:12.211Z,17.21
2019-05-11T02:08:18.102Z,17.09
2019-05-11T02:11:24.010Z,17.08
2019-05-11T02:14:30.010Z,17.05
2019-05-11T02:17:35.884Z,17.04
2019-05-11T02:20:41.787Z,17.02
2019-05-11T02:23:47.853Z,16.85
2019-05-11T02:26:53.718Z,16.85
2019-05-11T02:29:59.719Z,16.94
2019-05-11T02:33:05.907Z,16.90
2019-05-11T02:36:11.889Z,16.90
2019-05-11T02:39:17.789Z,16.90
2019-05-11T02:42:23.687Z,16.92
2019-05-11T02:45:41.167Z,16.95
2019-05-11T02:48:47.112Z,16.85
2019-05-11T02:51:53.571Z,16.85
2019-05-11T02:55:00.432Z,16.91
2019-05-11T02:58:07.568Z,16.75
2019-05-11T03:01:13.427Z,16.75
2019-05-11T03:04:19.365Z,16.71
2019-05-11T03:07:25.244Z,16.85
2019-05-11T03:10:31.304Z,16.70
2019-05-11T03:13:37.156Z,16.75
2019-05-11T03:16:43.174Z,16.74
2019-05-11T03:19:49.076Z,16.81
2019-05-11T03:22:54.983Z,16.77
2019-05-11T03:26:00.894Z,16.59
2019-05-11T03:29:06.892Z,16.89
2019-05-11T03:32:12.749Z,16.85
2019-05-11T03:35:18.936Z,16.92
2019-05-11T03:38:24.802Z,17.02
2019-05-11T03:41:30.729Z,17.18
2019-05-11T03:44:36.705Z,17.22
2019-05-11T03:47:42.682Z,17.40
2019-05-11T03:50:48.594Z,17.37
2019-05-11T03:53:54.580Z,17.45
2019-05-11T03:57:00.519Z,17.55
2019-05-11T04:00:07.182Z,17.47
2019-05-11T04:03:13.033Z,17.47
2019-05-11T04:06:18.849Z,17.68
2019-05-11T04:09:24.912Z,17.49
2019-05-11T04:12:35.446Z,17.47
2019-05-11T04:15:38.077Z,17.65
2019-05-11T04:18:43.758Z,17.94
2019-05-11T04:21:49.605Z,18.05
2019-05-11T04:24:55.305Z,18.34
2019-05-11T04:28:00.970Z,18.45
2019-05-11T04:31:06.657Z,17.86
2019-05-11T04:34:12.399Z,17.86
2019-05-11T04:37:18.245Z,18.02
2019-05-11T04:40:23.878Z,18.37
2019-05-11T04:43:29.581Z,18.57
2019-05-11T04:46:35.284Z,18.50
2019-05-11T04:49:41.030Z,19.01
2019-05-11T04:52:46.700Z,19.06
2019-05-11T04:55:52.493Z,18.99
2019-05-11T04:58:58.154Z,19.08
2019-05-11T05:02:04.016Z,19.22
2019-05-11T05:05:09.823Z,19.23
2019-05-11T05:08:15.663Z,19.27
2019-05-11T05:11:21.318Z,19.40
2019-05-11T05:14:27.102Z,19.35
2019-05-11T05:17:32.897Z,19.37
2019-05-11T05:20:38.581Z,19.61
2019-05-11T05:23:44.324Z,19.66
2019-05-11T05:26:50.109Z,19.96
2019-05-11T05:29:55.882Z,19.73
2019-05-11T05:33:01.635Z,19.94
2019-05-11T05:36:07.753Z,20.23
2019-05-11T05:39:13.484Z,20.26
2019-05-11T05:42:19.192Z,20.38
2019-05-11T05:45:24.928Z,20.35
2019-05-11T05:48:30.606Z,20.40
2019-05-11T05:51:36.353Z,20.38
2019-05-11T05:54:42.055Z,20.37
2019-05-11T05:57:47.785Z,20.76
2019-05-11T06:00:54.651Z,20.68
2019-05-11T06:04:01.433Z,21.17
2019-05-11T06:07:07.106Z,21.41
2019-05-11T06:10:13.156Z,21.47
2019-05-11T06:13:18.978Z,21.55
2019-05-11T06:16:24.700Z,21.35
2019-05-11T06:19:30.476Z,21.84
2019-05-11T06:22:36.141Z,21.96
2019-05-11T06:25:41.956Z,21.96
2019-05-11T06:28:47.702Z,21.91
2019-05-11T06:31:53.373Z,21.99
2019-05-11T06:34:59.124Z,22.45
2019-05-11T06:38:04.854Z,22.27
2019-05-11T06:41:18.245Z,22.17
2019-05-11T06:44:23.915Z,22.35
2019-05-11T06:47:29.600Z,22.24
2019-05-11T06:50:35.342Z,22.43
2019-05-11T06:53:41.052Z,22.57
2019-05-11T06:56:46.792Z,22.84
2019-05-11T06:59:52.604Z,23.34
2019-05-11T07:02:58.277Z,23.59
2019-05-11T07:06:04.037Z,23.30
2019-05-11T07:09:12.437Z,23.61
2019-05-11T07:12:20.096Z,23.56
2019-05-11T07:15:28.085Z,23.55
2019-05-11T07:18:33.935Z,23.51
2019-05-11T07:21:39.608Z,23.52
2019-05-11T07:24:45.279Z,23.81
2019-05-11T07:27:51.021Z,23.75
2019-05-11T07:30:56.727Z,23.75
2019-05-11T07:34:02.440Z,23.65
2019-05-11T07:37:08.346Z,23.86
2019-05-11T07:40:15.198Z,24.00
2019-05-11T07:43:21.298Z,23.78
2019-05-11T07:46:28.846Z,24.12
2019-05-11T07:49:34.475Z,23.85
2019-05-11T07:52:40.197Z,24.05
2019-05-11T07:55:48.329Z,24.78
2019-05-11T07:58:53.476Z,24.90
2019-05-11T08:01:59.375Z,24.72
2019-05-11T08:05:05.570Z,24.85
2019-05-11T08:08:11.209Z,24.58
2019-05-11T08:11:18.304Z,25.12
2019-05-11T08:14:24.363Z,25.13
2019-05-11T08:17:30.189Z,25.13
2019-05-11T08:20:38.355Z,24.67
2019-05-11T08:23:43.310Z,25.14
2019-05-11T08:26:49.051Z,24.94
2019-05-11T08:30:12.063Z,25.32
2019-05-11T08:33:20.971Z,25.73
2019-05-11T08:36:28.967Z,24.98
2019-05-11T08:39:34.292Z,24.71
2019-05-11T08:42:41.994Z,24.84
2019-05-11T08:46:04.217Z,25.03
2019-05-11T08:49:09.909Z,25.32
2019-05-11T08:52:15.659Z,25.71
2019-05-11T08:55:21.434Z,25.60
2019-05-11T08:58:27.872Z,25.77
2019-05-11T09:01:34.750Z,25.96
2019-05-11T09:04:48.471Z,25.75
2019-05-11T09:08:08.059Z,25.68
2019-05-11T09:11:20.728Z,25.82
2019-05-11T09:14:49.322Z,24.99
2019-05-11T09:18:11.284Z,25.20
2019-05-11T09:21:19.906Z,25.22
2019-05-11T09:24:35.297Z,25.68
2019-05-11T09:27:43.438Z,25.83
2019-05-11T09:30:48.482Z,25.69
2019-05-11T09:33:55.331Z,25.74
2019-05-11T09:37:01.025Z,25.90
2019-05-11T09:40:07.955Z,26.19
2019-05-11T09:43:17.697Z,26.44
2019-05-11T09:46:27.903Z,26.23
2019-05-11T09:49:52.320Z,26.41
2019-05-11T09:52:48.907Z,26.35
2019-05-11T09:55:55.435Z,26.40
2019-05-11T09:59:02.346Z,26.59
2019-05-11T10:02:08.205Z,26.33
2019-05-11T10:05:13.999Z,26.96
2019-05-11T10:08:19.736Z,27.07
2019-05-11T10:11:28.086Z,26.77
2019-05-11T10:14:33.152Z,26.96
2019-05-11T10:17:38.848Z,27.02
2019-05-11T10:20:44.568Z,27.20
2019-05-11T10:23:50.373Z,27.19
2019-05-11T10:26:57.801Z,27.06
2019-05-11T10:30:03.605Z,27.50
2019-05-11T10:33:09.690Z,27.53
2019-05-11T10:36:18.597Z,27.76
2019-05-11T10:39:23.932Z,27.80
2019-05-11T10:42:31.539Z,28.14
2019-05-11T10:45:40.760Z,28.10
2019-05-11T10:48:48.269Z,28.25
2019-05-11T10:52:04.932Z,27.44
2019-05-11T10:55:10.891Z,27.10
2019-05-11T10:58:21.342Z,26.53
2019-05-11T11:01:28.531Z,26.08
2019-05-11T11:04:38.039Z,26.89
2019-05-11T11:07:43.572Z,27.35
2019-05-11T11:10:49.468Z,27.22
2019-05-11T11:13:55.302Z,27.69
2019-05-11T11:17:15.888Z,27.87
2019-05-11T11:20:29.781Z,27.75
2019-05-11T11:23:38.478Z,27.07
2019-05-11T11:26:57.627Z,26.88
2019-05-11T11:30:03.597Z,26.81
2019-05-11T11:33:12.939Z,27.05
2019-05-11T11:36:18.700Z,27.38
2019-05-11T11:39:24.484Z,27.41
2019-05-11T11:42:30.166Z,27.63
2019-05-11T11:45:37.896Z,27.85
2019-05-11T11:48:43.394Z,27.54
2019-05-11T11:51:49.197Z,28.00
2019-05-11T11:54:54.992Z,27.68
2019-05-11T11:58:00.634Z,27.31
2019-05-11T12:01:08.164Z,27.40
2019-05-11T12:04:13.845Z,27.35
2019-05-11T12:07:19.937Z,27.64
2019-05-11T12:10:25.656Z,27.34
2019-05-11T12:13:33.290Z,27.30
2019-05-11T12:16:39.012Z,27.41
2019-05-11T12:19:44.664Z,27.18
2019-05-11T12:22:50.408Z,27.31
2019-05-11T12:25:57.986Z,27.16
2019-05-11T12:29:03.820Z,27.43
2019-05-11T12:32:13.725Z,27.50
2019-05-11T12:35:23.028Z,27.48
2019-05-11T12:38:28.686Z,27.60
2019-05-11T12:41:34.594Z,27.72
2019-05-11T12:44:40.265Z,27.85
2019-05-11T12:47:47.984Z,27.76
2019-05-11T12:50:53.395Z,27.67
2019-05-11T12:53:59.130Z,27.67
2019-05-11T12:57:11.617Z,28.04
2019-05-11T13:00:18.104Z,27.88
2019-05-11T13:03:27.845Z,27.98
2019-05-11T13:06:35.177Z,27.89
2019-05-11T13:09:40.867Z,28.05
2019-05-11T13:12:49.027Z,27.92
2019-05-11T13:15:53.952Z,27.78
2019-05-11T13:18:59.746Z,28.32
2019-05-11T13:22:07.763Z,28.22
2019-05-11T13:25:13.032Z,27.72
2019-05-11T13:28:18.746Z,27.18
2019-05-11T13:31:24.500Z,26.54
2019-05-11T13:34:31.474Z,26.23
2019-05-11T13:37:38.616Z,26.73
2019-05-11T13:40:44.671Z,27.58
2019-05-11T13:43:50.701Z,27.80
2019-05-11T13:46:58.423Z,28.18
2019-05-11T13:50:07.591Z,28.28
2019-05-11T13:53:12.690Z,28.24
2019-05-11T13:56:18.741Z,28.33
2019-05-11T13:59:27.992Z,28.63
2019-05-11T14:02:33.443Z,28.58
2019-05-11T14:05:39.138Z,28.54
2019-05-11T14:08:45.067Z,28.46
2019-05-11T14:11:50.810Z,28.55
2019-05-11T14:14:57.662Z,28.50
2019-05-11T14:18:08.607Z,28.63
2019-05-11T14:21:12.496Z,28.45
2019-05-11T14:24:18.538Z,28.59
2019-05-11T14:27:25.494Z,28.64
2019-05-11T14:30:31.201Z,28.32
2019-05-11T14:33:38.581Z,28.47
2019-05-11T14:36:44.464Z,28.76
2019-05-11T14:39:50.199Z,28.43
2019-05-11T14:42:58.098Z,28.66
2019-05-11T14:46:04.290Z,28.81
2019-05-11T14:49:09.985Z,28.70
2019-05-11T14:52:15.657Z,28.59
2019-05-11T14:55:21.613Z,28.73
2019-05-11T14:58:28.008Z,28.99
2019-05-11T15:01:33.764Z,29.04
2019-05-11T15:04:39.440Z,28.74
2019-05-11T15:07:47.328Z,28.86
2019-05-11T15:10:52.904Z,28.83
2019-05-11T15:13:58.580Z,28.92
2019-05-11T15:17:04.248Z,28.42
2019-05-11T15:20:12.644Z,28.31
2019-05-11T15:23:18.224Z,27.92
2019-05-11T15:26:24.035Z,27.64
2019-05-11T15:29:29.708Z,27.80
2019-05-11T15:32:37.476Z,27.61
2019-05-11T15:35:42.834Z,27.67
2019-05-11T15:38:48.531Z,27.70
2019-05-11T15:42:07.331Z,27.40
2019-05-11T15:45:01.621Z,26.88
2019-05-11T15:48:08.479Z,26.68
2019-05-11T15:51:14.380Z,26.49
2019-05-11T15:54:20.062Z,26.41
2019-05-11T15:57:28.776Z,26.29
2019-05-11T16:00:34.567Z,25.91
2019-05-11T16:03:40.243Z,26.33
2019-05-11T16:06:45.966Z,26.61
2019-05-11T16:09:51.631Z,26.62
2019-05-11T16:21:07.928Z,27.27
2019-05-11T16:24:00.017Z,26.87
2019-05-11T16:27:20.482Z,27.09
2019-05-11T16:30:23.034Z,26.84
2019-05-11T16:33:28.845Z,26.42
2019-05-11T16:36:34.535Z,26.11
2019-05-11T16:39:41.916Z,25.87
2019-05-11T16:42:50.826Z,25.74
2019-05-11T16:45:57.965Z,25.56
2019-05-11T16:49:03.907Z,25.31
2019-05-11T16:52:10.251Z,24.91
2019-05-11T16:55:18.195Z,25.11
2019-05-11T16:58:23.483Z,24.89
2019-05-11T17:01:29.177Z,24.91
2019-05-11T17:04:34.885Z,24.77
2019-05-11T17:07:40.554Z,24.74
2019-05-11T17:10:55.272Z,24.53
2019-05-11T17:14:00.982Z,24.44
2019-05-11T17:17:08.852Z,24.44
2019-05-11T17:20:14.722Z,24.35
2019-05-11T17:23:20.413Z,24.29
2019-05-11T17:26:27.919Z,24.25
2019-05-11T17:29:33.795Z,24.19
2019-05-11T17:32:39.560Z,24.05
2019-05-11T17:35:45.258Z,23.95
2019-05-11T17:38:51.068Z,23.90
2019-05-11T17:41:58.297Z,23.84
2019-05-11T17:45:07.938Z,23.78
2019-05-11T17:48:13.074Z,23.74
2019-05-11T17:51:22.576Z,23.60
2019-05-11T17:54:28.341Z,23.50
2019-05-11T17:57:39.527Z,23.50
2019-05-11T18:00:47.923Z,23.42
2019-05-11T18:03:53.367Z,23.36
2019-05-11T18:06:59.099Z,23.39
2019-05-11T18:10:05.021Z,23.41
2019-05-11T18:13:11.751Z,23.33
2019-05-11T18:16:18.917Z,23.31
2019-05-11T18:19:24.912Z,22.99
2019-05-11T18:22:30.614Z,23.01
2019-05-11T18:25:38.440Z,23.05
2019-05-11T18:28:43.734Z,23.11
2019-05-11T18:31:49.412Z,23.02
2019-05-11T18:34:55.175Z,22.92
2019-05-11T18:38:00.873Z,22.90
2019-05-11T18:41:06.672Z,22.86
2019-05-11T18:44:12.406Z,22.69
2019-05-11T18:47:18.463Z,22.63
2019-05-11T18:50:30.326Z,22.36
2019-05-11T18:53:31.881Z,22.45
2019-05-11T18:56:41.019Z,22.26
2019-05-11T18:59:48.373Z,22.41
2019-05-11T19:02:54.249Z,22.25
2019-05-11T19:05:59.935Z,21.96
2019-05-11T19:09:07.863Z,21.63
2019-05-11T19:12:13.528Z,21.61
2019-05-11T19:15:23.079Z,21.52
2019-05-11T19:18:28.916Z,21.40
2019-05-11T19:21:34.559Z,21.47
2019-05-11T19:24:44.950Z,21.39
2019-05-11T19:27:51.135Z,21.42
2019-05-11T19:30:59.105Z,21.39
2019-05-11T19:34:04.354Z,21.25
2019-05-11T19:37:10.042Z,21.01
2019-05-11T19:40:16.644Z,21.13
2019-05-11T19:43:22.452Z,21.24
2019-05-11T19:46:28.230Z,21.31
2019-05-11T19:49:47.854Z,21.28
2019-05-11T19:52:55.203Z,21.41
2019-05-11T19:59:50.857Z,21.13
2019-05-11T20:03:01.142Z,21.04
2019-05-11T20:06:08.751Z,20.93
2019-05-11T20:09:15.999Z,20.89
2019-05-11T20:12:21.686Z,20.93
2019-05-11T20:15:29.543Z,21.04
2019-05-11T20:18:35.269Z,20.97
2019-05-11T20:21:43.091Z,20.52
2019-05-11T20:25:04.051Z,20.72
2019-05-11T20:28:14.010Z,20.99
2019-05-11T20:31:21.041Z,20.46
2019-05-11T20:34:28.780Z,20.46
2019-05-11T20:37:34.073Z,20.21
2019-05-11T20:40:39.880Z,20.24
2019-05-11T20:43:45.602Z,20.41
2019-05-11T20:46:51.288Z,20.24
2019-05-11T20:49:58.711Z,20.01
2019-05-11T20:53:04.662Z,19.88
2019-05-11T20:56:10.337Z,19.93
2019-05-11T20:59:18.141Z,19.64
2019-05-11T21:02:23.463Z,19.73
2019-05-11T21:05:29.166Z,19.80
2019-05-11T21:08:34.849Z,19.96
2019-05-11T21:11:40.614Z,20.03
2019-05-11T21:14:48.455Z,19.90
2019-05-11T21:17:53.669Z,20.04
2019-05-11T21:20:59.393Z,20.21
2019-05-11T21:24:05.082Z,20.07
2019-05-11T21:27:10.754Z,20.02
2019-05-11T21:30:18.444Z,20.07
2019-05-11T21:33:24.137Z,20.25
2019-05-11T21:36:29.823Z,20.20
2019-05-11T21:39:37.800Z,20.08
2019-05-11T21:42:43.209Z,20.05
2019-05-11T21:45:48.947Z,19.87
2019-05-11T21:48:55.647Z,19.75
2019-05-11T21:52:04.348Z,19.47
2019-05-11T21:55:09.790Z,19.12
2019-05-11T21:58:18.087Z,19.10
2019-05-11T22:01:23.246Z,18.67
2019-05-11T22:04:28.946Z,18.61
2019-05-11T22:07:34.700Z,18.57
2019-05-11T22:10:41.608Z,18.49
2019-05-11T22:13:48.399Z,18.58
2019-05-11T22:16:54.245Z,18.14
2019-05-11T22:20:00.096Z,18.02
2019-05-11T22:23:08.959Z,17.94
2019-05-11T22:26:14.799Z,18.14
2019-05-11T22:29:20.512Z,18.10
2019-05-11T22:32:28.531Z,18.12
2019-05-11T22:35:34.548Z,17.98
2019-05-11T22:38:40.351Z,17.83
2019-05-11T22:41:48.173Z,17.85
2019-05-11T22:44:53.522Z,17.90
2019-05-11T22:47:59.256Z,17.97
2019-05-11T22:51:05.027Z,17.85
2019-05-11T22:54:12.293Z,18.13
2019-05-11T22:57:18.105Z,17.99
2019-05-11T23:00:41.580Z,18.13
2019-05-11T23:03:47.628Z,18.25
2019-05-11T23:06:53.444Z,18.11
2019-05-11T23:10:00.596Z,17.96
2019-05-11T23:13:08.263Z,18.04
2019-05-11T23:16:13.979Z,17.93
2019-05-11T23:19:19.732Z,17.94
2019-05-11T23:22:26.966Z,18.06
2019-05-11T23:25:33.355Z,18.11
2019-05-11T23:28:39.315Z,17.80
2019-05-11T23:31:44.957Z,17.61
2019-05-11T23:34:50.635Z,17.75
2019-05-11T23:37:58.128Z,17.49
2019-05-11T23:41:04.091Z,17.62
2019-05-11T23:44:09.903Z,17.61
2019-05-11T23:47:15.560Z,17.62
2019-05-11T23:50:21.692Z,17.78
2019-05-11T23:53:28.218Z,17.70
2019-05-11T23:56:34.087Z,17.46
2019-05-11T23:59:39.946Z,17.30
